sensor_id;sensor_type;location;lat;lon;timestamp;temperature;humidity
41944;DHT22;27636;52.610;13.244;2023-04-06T00:02:19;2.80;99.90
41944;DHT22;27636;52.610;13.244;2023-04-06T00:07:23;2.80;99.90
41944;DHT22;27636;52.610;13.244;2023-04-06T00:12:28;2.60;99.90
41944;DHT22;27636;52.610;13.244;2023-04-06T00:17:32;2.50;99.90
41944;DHT22;27636;52.610;13.244;2023-04-06T00:22:36;2.30;99.90
41944;DHT22;27636;52.610;13.244;2023-04-06T00:27:40;2.20;99.90
41944;DHT22;27636;52.610;13.244;2023-04-06T00:32:46;2.10;99.90
41944;DHT22;27636;52.610;13.244;2023-04-06T00:37:49;2.00;99.90
41944;DHT22;27636;52.610;13.244;2023-04-06T00:42:53;1.90;99.90
41944;DHT22;27636;52.610;13.244;2023-04-06T00:47:58;1.80;99.90
41944;DHT22;27636;52.610;13.244;2023-04-06T00:53:02;1.70;99.90
41944;DHT22;27636;52.610;13.244;2023-04-06T00:58:06;1.70;99.90
41944;DHT22;27636;52.610;13.244;2023-04-06T01:03:22;1.60;99.90
41944;DHT22;27636;52.610;13.244;2023-04-06T01:08:26;1.50;99.90
41944;DHT22;27636;52.610;13.244;2023-04-06T01:13:43;1.40;99.90
41944;DHT22;27636;52.610;13.244;2023-04-06T01:19:07;1.20;99.90
41944;DHT22;27636;52.610;13.244;2023-04-06T01:24:12;1.10;99.90
41944;DHT22;27636;52.610;13.244;2023-04-06T01:29:54;1.00;99.90
41944;DHT22;27636;52.610;13.244;2023-04-06T01:35:12;0.80;99.90
41944;DHT22;27636;52.610;13.244;2023-04-06T01:40:24;0.70;99.90
41944;DHT22;27636;52.610;13.244;2023-04-06T01:45:28;0.50;99.90
41944;DHT22;27636;52.610;13.244;2023-04-06T01:50:39;0.40;99.90
41944;DHT22;27636;52.610;13.244;2023-04-06T01:55:47;0.30;99.90
41944;DHT22;27636;52.610;13.244;2023-04-06T02:01:05;0.20;99.90
41944;DHT22;27636;52.610;13.244;2023-04-06T02:06:22;0.00;99.90
41944;DHT22;27636;52.610;13.244;2023-04-06T02:11:27;0.00;99.90
41944;DHT22;27636;52.610;13.244;2023-04-06T02:16:31;0.00;99.90
41944;DHT22;27636;52.610;13.244;2023-04-06T02:21:35;-0.20;99.90
41944;DHT22;27636;52.610;13.244;2023-04-06T02:26:40;-0.10;99.90
41944;DHT22;27636;52.610;13.244;2023-04-06T02:31:45;-0.20;99.90
41944;DHT22;27636;52.610;13.244;2023-04-06T02:36:49;-0.30;99.90
41944;DHT22;27636;52.610;13.244;2023-04-06T02:41:54;-0.40;99.90
41944;DHT22;27636;52.610;13.244;2023-04-06T02:47:01;-0.50;99.90
41944;DHT22;27636;52.610;13.244;2023-04-06T02:52:05;-0.50;99.90
41944;DHT22;27636;52.610;13.244;2023-04-06T02:57:13;-0.60;99.90
41944;DHT22;27636;52.610;13.244;2023-04-06T03:02:20;-0.60;99.90
41944;DHT22;27636;52.610;13.244;2023-04-06T03:07:25;-0.70;99.90
41944;DHT22;27636;52.610;13.244;2023-04-06T03:12:30;-0.90;99.90
41944;DHT22;27636;52.610;13.244;2023-04-06T03:17:50;-0.90;99.90
41944;DHT22;27636;52.610;13.244;2023-04-06T03:23:13;-0.90;99.90
41944;DHT22;27636;52.610;13.244;2023-04-06T03:28:19;-1.00;99.90
41944;DHT22;27636;52.610;13.244;2023-04-06T03:33:30;-1.10;99.90
41944;DHT22;27636;52.610;13.244;2023-04-06T03:38:34;-1.10;99.90
41944;DHT22;27636;52.610;13.244;2023-04-06T03:43:47;-1.20;99.90
41944;DHT22;27636;52.610;13.244;2023-04-06T03:48:51;-1.30;99.90
41944;DHT22;27636;52.610;13.244;2023-04-06T03:53:57;-1.20;99.90
41944;DHT22;27636;52.610;13.244;2023-04-06T03:59:02;-1.30;99.90
41944;DHT22;27636;52.610;13.244;2023-04-06T04:04:06;-1.30;99.90
41944;DHT22;27636;52.610;13.244;2023-04-06T04:09:10;-1.20;99.90
41944;DHT22;27636;52.610;13.244;2023-04-06T04:14:15;-1.30;99.90
41944;DHT22;27636;52.610;13.244;2023-04-06T04:19:18;-1.30;99.90
41944;DHT22;27636;52.610;13.244;2023-04-06T04:24:22;-1.30;99.90
41944;DHT22;27636;52.610;13.244;2023-04-06T04:29:27;-1.30;99.90
41944;DHT22;27636;52.610;13.244;2023-04-06T04:34:35;-1.40;99.90
41944;DHT22;27636;52.610;13.244;2023-04-06T04:39:41;-1.30;99.90
41944;DHT22;27636;52.610;13.244;2023-04-06T04:44:46;-1.30;99.90
41944;DHT22;27636;52.610;13.244;2023-04-06T04:49:55;-1.30;99.90
41944;DHT22;27636;52.610;13.244;2023-04-06T04:55:00;-1.20;99.90
41944;DHT22;27636;52.610;13.244;2023-04-06T05:00:07;-1.10;99.90
41944;DHT22;27636;52.610;13.244;2023-04-06T05:05:14;-1.10;99.90
41944;DHT22;27636;52.610;13.244;2023-04-06T05:10:18;-1.00;99.90
41944;DHT22;27636;52.610;13.244;2023-04-06T05:15:32;-0.90;99.90
41944;DHT22;27636;52.610;13.244;2023-04-06T05:20:47;-0.80;99.90
41944;DHT22;27636;52.610;13.244;2023-04-06T05:25:51;-0.50;99.90
41944;DHT22;27636;52.610;13.244;2023-04-06T05:30:59;-0.50;99.90
41944;DHT22;27636;52.610;13.244;2023-04-06T05:36:10;-0.20;99.90
41944;DHT22;27636;52.610;13.244;2023-04-06T05:41:19;0.20;99.90
41944;DHT22;27636;52.610;13.244;2023-04-06T05:46:25;0.80;99.90
41944;DHT22;27636;52.610;13.244;2023-04-06T05:51:31;1.10;99.90
41944;DHT22;27636;52.610;13.244;2023-04-06T05:56:35;1.10;99.90
41944;DHT22;27636;52.610;13.244;2023-04-06T06:01:41;1.10;99.90
41944;DHT22;27636;52.610;13.244;2023-04-06T06:06:45;1.90;99.90
41944;DHT22;27636;52.610;13.244;2023-04-06T06:12:01;2.30;99.90
41944;DHT22;27636;52.610;13.244;2023-04-06T06:17:08;3.00;99.90
41944;DHT22;27636;52.610;13.244;2023-04-06T06:22:13;5.20;99.90
41944;DHT22;27636;52.610;13.244;2023-04-06T06:27:20;8.40;99.90
41944;DHT22;27636;52.610;13.244;2023-04-06T06:32:26;10.90;90.70
41944;DHT22;27636;52.610;13.244;2023-04-06T06:37:30;11.50;81.90
41944;DHT22;27636;52.610;13.244;2023-04-06T06:42:36;12.80;76.30
41944;DHT22;27636;52.610;13.244;2023-04-06T06:47:51;14.20;72.00
41944;DHT22;27636;52.610;13.244;2023-04-06T06:52:57;14.30;65.00
41944;DHT22;27636;52.610;13.244;2023-04-06T06:58:01;14.50;62.20
41944;DHT22;27636;52.610;13.244;2023-04-06T07:03:06;14.80;63.80
41944;DHT22;27636;52.610;13.244;2023-04-06T07:08:10;15.20;61.10
41944;DHT22;27636;52.610;13.244;2023-04-06T07:13:14;14.50;60.80
41944;DHT22;27636;52.610;13.244;2023-04-06T07:18:28;13.50;61.10
41944;DHT22;27636;52.610;13.244;2023-04-06T07:23:32;14.00;60.30
41944;DHT22;27636;52.610;13.244;2023-04-06T07:28:35;15.30;59.80
41944;DHT22;27636;52.610;13.244;2023-04-06T07:33:41;15.10;56.50
41944;DHT22;27636;52.610;13.244;2023-04-06T07:38:45;16.50;56.80
41944;DHT22;27636;52.610;13.244;2023-04-06T07:43:49;16.90;51.30
41944;DHT22;27636;52.610;13.244;2023-04-06T07:48:55;16.30;51.50
41944;DHT22;27636;52.610;13.244;2023-04-06T07:53:59;16.20;50.70
41944;DHT22;27636;52.610;13.244;2023-04-06T07:59:03;16.60;50.60
41944;DHT22;27636;52.610;13.244;2023-04-06T08:04:08;16.70;51.20
41944;DHT22;27636;52.610;13.244;2023-04-06T08:09:12;16.40;50.10
41944;DHT22;27636;52.610;13.244;2023-04-06T08:14:16;15.40;51.20
41944;DHT22;27636;52.610;13.244;2023-04-06T08:19:21;16.60;52.50
41944;DHT22;27636;52.610;13.244;2023-04-06T08:24:25;16.50;50.20
41944;DHT22;27636;52.610;13.244;2023-04-06T08:29:28;16.50;47.20
41944;DHT22;27636;52.610;13.244;2023-04-06T08:34:34;15.50;49.60
41944;DHT22;27636;52.610;13.244;2023-04-06T08:39:38;14.70;50.20
41944;DHT22;27636;52.610;13.244;2023-04-06T08:44:42;13.80;51.40
41944;DHT22;27636;52.610;13.244;2023-04-06T08:49:47;15.20;50.60
41944;DHT22;27636;52.610;13.244;2023-04-06T08:54:51;16.70;47.60
41944;DHT22;27636;52.610;13.244;2023-04-06T08:59:56;16.10;47.40
41944;DHT22;27636;52.610;13.244;2023-04-06T09:05:01;15.60;48.20
41944;DHT22;27636;52.610;13.244;2023-04-06T09:10:06;16.40;47.20
41944;DHT22;27636;52.610;13.244;2023-04-06T09:15:18;16.10;46.60
41944;DHT22;27636;52.610;13.244;2023-04-06T09:20:28;16.20;48.20
41944;DHT22;27636;52.610;13.244;2023-04-06T09:25:32;16.90;46.00
41944;DHT22;27636;52.610;13.244;2023-04-06T09:30:35;16.40;46.00
41944;DHT22;27636;52.610;13.244;2023-04-06T09:35:49;16.10;45.90
41944;DHT22;27636;52.610;13.244;2023-04-06T09:40:53;16.50;44.80
41944;DHT22;27636;52.610;13.244;2023-04-06T09:46:04;18.00;43.80
41944;DHT22;27636;52.610;13.244;2023-04-06T09:51:10;18.40;41.90
41944;DHT22;27636;52.610;13.244;2023-04-06T09:56:17;17.60;41.80
41944;DHT22;27636;52.610;13.244;2023-04-06T10:01:28;16.10;44.20
41944;DHT22;27636;52.610;13.244;2023-04-06T10:06:35;16.50;43.00
41944;DHT22;27636;52.610;13.244;2023-04-06T10:11:39;16.70;43.10
41944;DHT22;27636;52.610;13.244;2023-04-06T10:16:44;17.00;40.50
41944;DHT22;27636;52.610;13.244;2023-04-06T10:21:51;16.40;41.90
41944;DHT22;27636;52.610;13.244;2023-04-06T10:26:58;16.20;43.10
41944;DHT22;27636;52.610;13.244;2023-04-06T10:32:02;15.80;43.40
41944;DHT22;27636;52.610;13.244;2023-04-06T10:37:15;15.60;44.50
41944;DHT22;27636;52.610;13.244;2023-04-06T10:42:23;16.90;43.20
41944;DHT22;27636;52.610;13.244;2023-04-06T10:47:27;16.00;42.20
41944;DHT22;27636;52.610;13.244;2023-04-06T10:52:32;15.10;45.60
41944;DHT22;27636;52.610;13.244;2023-04-06T10:57:36;14.70;43.90
41944;DHT22;27636;52.610;13.244;2023-04-06T11:02:40;13.30;45.20
41944;DHT22;27636;52.610;13.244;2023-04-06T11:07:46;14.10;45.70
41944;DHT22;27636;52.610;13.244;2023-04-06T11:12:53;15.80;44.30
41944;DHT22;27636;52.610;13.244;2023-04-06T11:17:57;15.80;44.10
41944;DHT22;27636;52.610;13.244;2023-04-06T11:23:02;15.50;43.10
41944;DHT22;27636;52.610;13.244;2023-04-06T11:28:07;15.70;41.40
41944;DHT22;27636;52.610;13.244;2023-04-06T11:33:11;16.90;42.20
41944;DHT22;27636;52.610;13.244;2023-04-06T11:38:18;16.90;40.30
41944;DHT22;27636;52.610;13.244;2023-04-06T11:43:26;16.70;41.50
41944;DHT22;27636;52.610;13.244;2023-04-06T11:48:30;16.70;41.40
41944;DHT22;27636;52.610;13.244;2023-04-06T11:53:44;15.90;40.90
41944;DHT22;27636;52.610;13.244;2023-04-06T11:58:51;15.70;41.10
41944;DHT22;27636;52.610;13.244;2023-04-06T12:03:55;16.00;41.40
41944;DHT22;27636;52.610;13.244;2023-04-06T12:09:00;16.10;41.60
41944;DHT22;27636;52.610;13.244;2023-04-06T12:14:04;17.30;40.30
41944;DHT22;27636;52.610;13.244;2023-04-06T12:19:09;16.80;39.40
41944;DHT22;27636;52.610;13.244;2023-04-06T12:24:14;17.20;38.20
41944;DHT22;27636;52.610;13.244;2023-04-06T12:29:18;17.10;40.60
41944;DHT22;27636;52.610;13.244;2023-04-06T12:34:22;16.40;40.30
41944;DHT22;27636;52.610;13.244;2023-04-06T12:39:27;16.10;40.90
41944;DHT22;27636;52.610;13.244;2023-04-06T12:44:31;16.40;40.30
41944;DHT22;27636;52.610;13.244;2023-04-06T12:49:35;16.50;39.70
41944;DHT22;27636;52.610;13.244;2023-04-06T12:54:41;14.80;41.70
41944;DHT22;27636;52.610;13.244;2023-04-06T12:59:45;15.80;40.50
41944;DHT22;27636;52.610;13.244;2023-04-06T13:04:50;16.90;42.20
41944;DHT22;27636;52.610;13.244;2023-04-06T13:09:55;16.40;40.20
41944;DHT22;27636;52.610;13.244;2023-04-06T13:14:59;16.60;39.50
41944;DHT22;27636;52.610;13.244;2023-04-06T13:20:04;16.60;39.40
41944;DHT22;27636;52.610;13.244;2023-04-06T13:25:10;16.50;39.30
41944;DHT22;27636;52.610;13.244;2023-04-06T13:30:14;16.30;41.70
41944;DHT22;27636;52.610;13.244;2023-04-06T13:35:20;16.50;39.30
41944;DHT22;27636;52.610;13.244;2023-04-06T13:40:25;16.20;45.00
41944;DHT22;27636;52.610;13.244;2023-04-06T13:45:29;16.20;41.80
41944;DHT22;27636;52.610;13.244;2023-04-06T13:50:34;15.60;40.40
41944;DHT22;27636;52.610;13.244;2023-04-06T13:55:40;14.90;40.60
41944;DHT22;27636;52.610;13.244;2023-04-06T14:00:44;15.20;43.00
41944;DHT22;27636;52.610;13.244;2023-04-06T14:05:48;14.90;43.10
41944;DHT22;27636;52.610;13.244;2023-04-06T14:10:53;14.70;44.50
41944;DHT22;27636;52.610;13.244;2023-04-06T14:15:59;14.70;43.70
41944;DHT22;27636;52.610;13.244;2023-04-06T14:21:05;14.30;42.50
41944;DHT22;27636;52.610;13.244;2023-04-06T14:26:10;14.00;45.80
41944;DHT22;27636;52.610;13.244;2023-04-06T14:31:14;14.60;43.60
41944;DHT22;27636;52.610;13.244;2023-04-06T14:36:19;14.70;43.80
41944;DHT22;27636;52.610;13.244;2023-04-06T14:41:24;15.10;44.20
41944;DHT22;27636;52.610;13.244;2023-04-06T14:46:33;14.90;45.10
41944;DHT22;27636;52.610;13.244;2023-04-06T14:51:38;15.40;45.50
41944;DHT22;27636;52.610;13.244;2023-04-06T14:56:43;15.00;44.70
41944;DHT22;27636;52.610;13.244;2023-04-06T15:01:47;14.70;44.90
41944;DHT22;27636;52.610;13.244;2023-04-06T15:06:50;14.00;45.60
41944;DHT22;27636;52.610;13.244;2023-04-06T15:11:55;14.00;46.40
41944;DHT22;27636;52.610;13.244;2023-04-06T15:17:00;14.00;45.70
41944;DHT22;27636;52.610;13.244;2023-04-06T15:22:03;14.00;47.30
41944;DHT22;27636;52.610;13.244;2023-04-06T15:27:08;14.10;44.60
41944;DHT22;27636;52.610;13.244;2023-04-06T15:32:11;14.30;46.50
41944;DHT22;27636;52.610;13.244;2023-04-06T15:37:16;14.60;44.10
41944;DHT22;27636;52.610;13.244;2023-04-06T15:42:21;14.50;45.50
41944;DHT22;27636;52.610;13.244;2023-04-06T15:47:25;14.80;45.00
41944;DHT22;27636;52.610;13.244;2023-04-06T15:52:29;14.80;44.30
41944;DHT22;27636;52.610;13.244;2023-04-06T15:57:34;14.20;45.50
41944;DHT22;27636;52.610;13.244;2023-04-06T16:02:39;13.00;47.80
41944;DHT22;27636;52.610;13.244;2023-04-06T16:07:43;12.30;50.40
41944;DHT22;27636;52.610;13.244;2023-04-06T16:12:48;11.90;51.80
41944;DHT22;27636;52.610;13.244;2023-04-06T16:17:52;11.50;51.40
41944;DHT22;27636;52.610;13.244;2023-04-06T16:22:55;11.20;53.80
41944;DHT22;27636;52.610;13.244;2023-04-06T16:28:00;11.10;53.40
41944;DHT22;27636;52.610;13.244;2023-04-06T16:33:04;10.90;52.80
41944;DHT22;27636;52.610;13.244;2023-04-06T16:38:08;10.80;54.20
41944;DHT22;27636;52.610;13.244;2023-04-06T16:43:14;10.70;54.60
41944;DHT22;27636;52.610;13.244;2023-04-06T16:48:18;10.50;55.60
41944;DHT22;27636;52.610;13.244;2023-04-06T16:53:22;10.20;56.90
41944;DHT22;27636;52.610;13.244;2023-04-06T16:58:28;10.10;57.90
41944;DHT22;27636;52.610;13.244;2023-04-06T17:03:32;9.90;58.40
41944;DHT22;27636;52.610;13.244;2023-04-06T17:08:37;9.80;58.20
41944;DHT22;27636;52.610;13.244;2023-04-06T17:13:42;9.70;58.20
41944;DHT22;27636;52.610;13.244;2023-04-06T17:18:46;9.40;59.10
41944;DHT22;27636;52.610;13.244;2023-04-06T17:23:50;9.40;59.80
41944;DHT22;27636;52.610;13.244;2023-04-06T17:28:55;9.20;60.00
41944;DHT22;27636;52.610;13.244;2023-04-06T17:33:58;9.10;60.90
41944;DHT22;27636;52.610;13.244;2023-04-06T17:39:02;9.00;61.40
41944;DHT22;27636;52.610;13.244;2023-04-06T17:44:08;8.90;61.60
41944;DHT22;27636;52.610;13.244;2023-04-06T17:49:12;8.80;62.00
41944;DHT22;27636;52.610;13.244;2023-04-06T17:54:16;8.40;63.40
41944;DHT22;27636;52.610;13.244;2023-04-06T17:59:22;8.20;64.70
41944;DHT22;27636;52.610;13.244;2023-04-06T18:04:26;8.20;64.50
41944;DHT22;27636;52.610;13.244;2023-04-06T18:09:30;8.10;63.90
41944;DHT22;27636;52.610;13.244;2023-04-06T18:14:37;8.00;64.80
41944;DHT22;27636;52.610;13.244;2023-04-06T18:19:41;7.90;65.90
41944;DHT22;27636;52.610;13.244;2023-04-06T18:24:44;7.60;67.10
41944;DHT22;27636;52.610;13.244;2023-04-06T18:29:50;7.80;67.60
41944;DHT22;27636;52.610;13.244;2023-04-06T18:34:53;7.50;68.60
41944;DHT22;27636;52.610;13.244;2023-04-06T18:39:59;7.20;70.10
41944;DHT22;27636;52.610;13.244;2023-04-06T18:45:06;7.20;70.20
41944;DHT22;27636;52.610;13.244;2023-04-06T18:50:10;7.00;70.80
41944;DHT22;27636;52.610;13.244;2023-04-06T18:55:14;6.90;71.60
41944;DHT22;27636;52.610;13.244;2023-04-06T19:00:19;6.90;71.70
41944;DHT22;27636;52.610;13.244;2023-04-06T19:05:23;6.70;72.40
41944;DHT22;27636;52.610;13.244;2023-04-06T19:10:26;6.40;74.00
41944;DHT22;27636;52.610;13.244;2023-04-06T19:15:33;6.30;74.50
41944;DHT22;27636;52.610;13.244;2023-04-06T19:20:37;6.00;75.70
41944;DHT22;27636;52.610;13.244;2023-04-06T19:25:41;5.70;77.40
41944;DHT22;27636;52.610;13.244;2023-04-06T19:30:47;5.50;78.90
41944;DHT22;27636;52.610;13.244;2023-04-06T19:35:51;5.30;80.40
41944;DHT22;27636;52.610;13.244;2023-04-06T19:40:55;5.30;80.10
41944;DHT22;27636;52.610;13.244;2023-04-06T19:46:00;5.30;81.60
41944;DHT22;27636;52.610;13.244;2023-04-06T19:51:03;5.10;81.80
41944;DHT22;27636;52.610;13.244;2023-04-06T19:56:08;5.00;83.10
41944;DHT22;27636;52.610;13.244;2023-04-06T20:01:14;4.90;83.70
41944;DHT22;27636;52.610;13.244;2023-04-06T20:06:18;4.70;86.00
41944;DHT22;27636;52.610;13.244;2023-04-06T20:11:21;4.30;88.50
41944;DHT22;27636;52.610;13.244;2023-04-06T20:16:26;4.30;90.10
41944;DHT22;27636;52.610;13.244;2023-04-06T20:21:31;4.30;90.40
41944;DHT22;27636;52.610;13.244;2023-04-06T20:26:34;4.10;91.80
41944;DHT22;27636;52.610;13.244;2023-04-06T20:31:39;4.00;92.40
41944;DHT22;27636;52.610;13.244;2023-04-06T20:36:43;3.80;93.00
41944;DHT22;27636;52.610;13.244;2023-04-06T20:41:47;3.60;94.30
41944;DHT22;27636;52.610;13.244;2023-04-06T20:46:53;3.60;95.60
41944;DHT22;27636;52.610;13.244;2023-04-06T20:51:57;3.50;96.30
41944;DHT22;27636;52.610;13.244;2023-04-06T20:57:01;3.40;97.10
41944;DHT22;27636;52.610;13.244;2023-04-06T21:02:06;3.20;98.60
41944;DHT22;27636;52.610;13.244;2023-04-06T21:07:10;2.90;99.90
41944;DHT22;27636;52.610;13.244;2023-04-06T21:12:14;2.70;99.90
41944;DHT22;27636;52.610;13.244;2023-04-06T21:17:19;2.90;99.90
41944;DHT22;27636;52.610;13.244;2023-04-06T21:22:23;2.90;99.90
41944;DHT22;27636;52.610;13.244;2023-04-06T21:27:27;2.70;99.90
41944;DHT22;27636;52.610;13.244;2023-04-06T21:32:33;2.70;99.90
41944;DHT22;27636;52.610;13.244;2023-04-06T21:37:36;2.60;99.90
41944;DHT22;27636;52.610;13.244;2023-04-06T21:42:41;2.70;99.90
41944;DHT22;27636;52.610;13.244;2023-04-06T21:47:46;2.60;99.90
41944;DHT22;27636;52.610;13.244;2023-04-06T21:52:49;2.30;99.90
41944;DHT22;27636;52.610;13.244;2023-04-06T21:57:53;2.10;99.90
41944;DHT22;27636;52.610;13.244;2023-04-06T22:02:59;1.80;99.90
41944;DHT22;27636;52.610;13.244;2023-04-06T22:08:02;1.70;99.90
41944;DHT22;27636;52.610;13.244;2023-04-06T22:13:07;1.60;99.90
41944;DHT22;27636;52.610;13.244;2023-04-06T22:18:12;1.50;99.90
41944;DHT22;27636;52.610;13.244;2023-04-06T22:23:16;1.50;99.90
41944;DHT22;27636;52.610;13.244;2023-04-06T22:28:21;1.60;99.90
41944;DHT22;27636;52.610;13.244;2023-04-06T22:33:27;1.70;99.90
41944;DHT22;27636;52.610;13.244;2023-04-06T22:38:31;1.60;99.90
41944;DHT22;27636;52.610;13.244;2023-04-06T22:43:34;1.70;99.90
41944;DHT22;27636;52.610;13.244;2023-04-06T22:48:39;1.70;99.90
41944;DHT22;27636;52.610;13.244;2023-04-06T22:53:43;1.60;99.90
41944;DHT22;27636;52.610;13.244;2023-04-06T22:58:47;1.60;99.90
41944;DHT22;27636;52.610;13.244;2023-04-06T23:03:52;1.40;99.90
41944;DHT22;27636;52.610;13.244;2023-04-06T23:08:55;1.30;99.90
41944;DHT22;27636;52.610;13.244;2023-04-06T23:14:00;1.20;99.90
41944;DHT22;27636;52.610;13.244;2023-04-06T23:19:05;1.10;99.90
41944;DHT22;27636;52.610;13.244;2023-04-06T23:24:08;1.00;99.90
41944;DHT22;27636;52.610;13.244;2023-04-06T23:29:12;1.00;99.90
41944;DHT22;27636;52.610;13.244;2023-04-06T23:34:17;0.90;99.90
41944;DHT22;27636;52.610;13.244;2023-04-06T23:39:21;0.90;99.90
41944;DHT22;27636;52.610;13.244;2023-04-06T23:44:28;0.90;99.90
41944;DHT22;27636;52.610;13.244;2023-04-06T23:49:33;0.90;99.90
41944;DHT22;27636;52.610;13.244;2023-04-06T23:54:37;0.80;99.90
41944;DHT22;27636;52.610;13.244;2023-04-06T23:59:40;0.70;99.90
